Time;durP1;ratioP1;P1;durP2;ratioP2;P2;SDS_P1;SDS_P2;PMS_P1;PMS_P2;Temp;Humidity;BMP_temperature;BMP_pressure;BME280_temperature;BME280_humidity;BME280_pressure;Samples;Min_cycle;Max_cycle;Signal;HPM_P1;HPM_P2
2022/07/08 00:01:07;;;;;;;10.37;2.07;;;;;;;14.26;67.24;96676.09;4994848;28;20203;-81
2022/07/08 00:03:32;;;;;;;6.73;2.20;;;;;;;14.32;67.54;96678.16;4995385;28;20188;-81
2022/07/08 00:05:57;;;;;;;5.68;1.90;;;;;;;14.24;67.99;96683.28;5007870;28;20540;-81
2022/07/08 00:08:23;;;;;;;7.13;1.90;;;;;;;14.18;67.44;96689.06;5009837;28;20189;-81
2022/07/08 00:10:48;;;;;;;7.10;3.10;;;;;;;14.24;66.46;96691.13;5009587;28;20204;-79
2022/07/08 00:13:14;;;;;;;8.73;2.43;;;;;;;13.98;67.21;96687.47;4992364;28;20266;-81
2022/07/08 00:15:39;;;;;;;12.10;2.67;;;;;;;13.85;66.42;96696.41;5013889;28;20279;-80
2022/07/08 00:18:04;;;;;;;11.37;3.30;;;;;;;13.76;65.59;96706.84;5014879;28;20234;-81
2022/07/08 00:20:30;;;;;;;7.33;3.20;;;;;;;13.83;65.64;96703.56;4998199;28;20314;-80
2022/07/08 00:22:56;;;;;;;8.43;3.37;;;;;;;13.81;65.32;96710.72;5010823;28;20198;-80
2022/07/08 00:25:21;;;;;;;10.60;3.20;;;;;;;13.88;64.44;96706.59;5000335;28;20176;-80
2022/07/08 00:27:47;;;;;;;7.77;3.50;;;;;;;13.88;63.37;96701.38;4994689;28;20180;-80
2022/07/08 00:30:12;;;;;;;6.70;3.50;;;;;;;13.72;62.83;96711.53;5003697;28;20175;-80
2022/07/08 00:32:38;;;;;;;6.80;3.80;;;;;;;13.88;63.09;96711.00;5002263;28;20593;-80
2022/07/08 00:35:04;;;;;;;6.73;3.27;;;;;;;13.95;62.40;96713.84;5007737;28;20206;-80
2022/07/08 00:37:29;;;;;;;8.83;3.70;;;;;;;13.97;62.45;96714.56;4994546;28;20208;-80
2022/07/08 00:39:55;;;;;;;8.73;3.40;;;;;;;13.96;62.12;96716.34;4990428;28;20191;-81
2022/07/08 00:42:20;;;;;;;8.18;3.22;;;;;;;13.93;62.05;96726.22;5014250;28;20735;-82
2022/07/08 00:44:45;;;;;;;6.87;3.03;;;;;;;13.85;62.48;96722.50;4997392;28;20241;-80
2022/07/08 00:47:11;;;;;;;8.90;3.57;;;;;;;13.94;62.55;96725.25;5013785;28;20583;-82
2022/07/08 00:49:36;;;;;;;6.43;3.20;;;;;;;13.92;62.84;96727.19;5014088;28;20197;-80
2022/07/08 00:52:01;;;;;;;9.30;2.90;;;;;;;13.78;63.00;96721.44;4998113;28;20213;-81
2022/07/08 00:54:27;;;;;;;9.30;3.27;;;;;;;13.84;63.07;96720.88;5014681;28;20189;-82
2022/07/08 00:56:54;;;;;;;8.60;3.17;;;;;;;13.91;63.15;96722.94;5013764;28;20211;-80
2022/07/08 00:59:20;;;;;;;7.03;2.87;;;;;;;14.04;62.92;96721.66;4997629;28;20286;-81
2022/07/08 01:01:45;;;;;;;9.37;3.30;;;;;;;14.02;62.86;96715.75;4997754;28;20698;-81
2022/07/08 01:04:11;;;;;;;7.77;2.83;;;;;;;14.00;61.61;96716.88;4993569;28;20247;-81
2022/07/08 01:06:36;;;;;;;7.23;2.63;;;;;;;13.84;61.58;96714.81;4996707;28;20203;-79
2022/07/08 01:09:02;;;;;;;10.73;3.30;;;;;;;13.76;61.52;96701.63;4998105;28;20705;-80
2022/07/08 01:11:27;;;;;;;7.73;3.10;;;;;;;13.64;61.75;96706.19;4997734;28;20203;-80
2022/07/08 01:13:52;;;;;;;8.55;3.10;;;;;;;13.58;62.09;96704.94;4993517;28;20616;-80
2022/07/08 01:16:18;;;;;;;9.53;3.23;;;;;;;13.62;61.65;96713.34;4978010;28;20615;-82
2022/07/08 01:18:43;;;;;;;6.43;3.00;;;;;;;13.45;61.89;96714.03;4995957;28;20769;-82
2022/07/08 01:21:09;;;;;;;7.83;3.07;;;;;;;13.42;61.21;96714.28;4985387;28;20214;-82
2022/07/08 01:23:34;;;;;;;6.60;3.20;;;;;;;13.45;61.03;96711.41;5010606;28;20550;-81
2022/07/08 01:26:00;;;;;;;7.37;2.63;;;;;;;13.48;60.83;96714.56;5008085;28;20190;-82
2022/07/08 01:28:27;;;;;;;6.70;2.90;;;;;;;13.50;60.95;96710.03;4996919;28;20179;-81
2022/07/08 01:30:52;;;;;;;7.43;3.10;;;;;;;13.36;61.13;96720.06;4997145;28;20445;-82
2022/07/08 01:33:18;;;;;;;9.10;3.10;;;;;;;13.29;61.46;96725.81;5012803;28;20186;-81
2022/07/08 01:35:43;;;;;;;7.97;3.00;;;;;;;13.35;60.82;96719.25;5010329;28;20628;-81
2022/07/08 01:38:08;;;;;;;7.33;2.93;;;;;;;13.19;60.97;96722.38;4993671;28;20230;-82
2022/07/08 01:40:34;;;;;;;7.93;2.80;;;;;;;13.24;60.73;96725.38;4993663;28;20204;-81
2022/07/08 01:42:59;;;;;;;10.27;3.10;;;;;;;13.28;60.85;96718.13;4997662;28;20206;-79
2022/07/08 01:45:24;;;;;;;7.10;3.17;;;;;;;13.26;61.27;96728.72;4996592;28;20256;-81
2022/07/08 01:47:50;;;;;;;11.03;3.30;;;;;;;13.28;60.51;96729.38;5012966;28;20269;-79
2022/07/08 01:50:15;;;;;;;7.23;4.10;;;;;;;13.23;61.03;96733.34;5013314;28;20179;-81
2022/07/08 01:52:40;;;;;;;6.40;3.00;;;;;;;13.29;60.79;96740.66;5013034;28;20600;-80
2022/07/08 01:55:06;;;;;;;6.93;3.20;;;;;;;13.29;60.83;96746.69;5012697;28;20194;-80
2022/07/08 01:57:34;;;;;;;6.47;2.80;;;;;;;13.26;61.03;96739.13;4992979;28;20675;-80
2022/07/08 01:59:59;;;;;;;8.63;3.17;;;;;;;13.20;60.57;96747.50;5007043;28;20187;-79
2022/07/08 02:02:24;;;;;;;11.77;3.43;;;;;;;13.02;61.65;96749.91;4993079;28;20215;-81
2022/07/08 02:04:50;;;;;;;5.10;2.67;;;;;;;13.17;60.95;96746.91;4992277;28;20227;-81
2022/07/08 02:07:15;;;;;;;7.07;2.80;;;;;;;13.08;61.32;96745.94;4999224;28;20210;-80
2022/07/08 02:09:41;;;;;;;10.83;3.53;;;;;;;13.23;60.82;96752.44;5012674;28;20741;-82
2022/07/08 02:12:19;;;;;;;7.33;2.93;;;;;;;13.26;60.84;96746.97;5013915;28;20211;-82
2022/07/08 02:14:52;;;;;;;7.67;3.10;;;;;;;13.17;60.38;96752.97;4999106;28;20178;-81
2022/07/08 02:17:19;;;;;;;6.43;3.30;;;;;;;13.17;61.10;96745.13;4998105;28;20242;-81
2022/07/08 02:19:44;;;;;;;7.37;2.97;;;;;;;13.06;61.67;96742.63;5013253;28;21631;-80
2022/07/08 02:22:10;;;;;;;8.57;3.20;;;;;;;12.69;62.47;96745.81;4996854;28;20675;-82
2022/07/08 02:24:35;;;;;;;9.10;3.10;;;;;;;12.96;61.70;96745.19;5012595;28;20244;-82
2022/07/08 02:27:02;;;;;;;8.97;3.23;;;;;;;12.91;61.84;96744.78;5028345;28;20183;-81
2022/07/08 02:29:27;;;;;;;6.67;2.60;;;;;;;13.00;61.95;96751.81;4992263;28;20195;-81
2022/07/08 02:31:52;;;;;;;11.03;3.10;;;;;;;12.99;61.59;96754.56;4992133;28;20214;-81
2022/07/08 02:34:18;;;;;;;8.97;4.10;;;;;;;12.98;61.96;96752.88;4994736;28;20183;-80
2022/07/08 02:36:43;;;;;;;7.97;2.83;;;;;;;13.02;61.15;96756.88;5011546;28;20706;-81
2022/07/08 02:39:09;;;;;;;10.13;3.07;;;;;;;12.91;61.65;96759.63;4995476;28;20183;-80
2022/07/08 02:41:34;;;;;;;7.43;2.63;;;;;;;12.99;61.46;96760.59;4994615;28;20341;-81
2022/07/08 02:43:59;;;;;;;6.50;2.90;;;;;;;12.94;61.81;96762.75;5012087;28;20264;-80
2022/07/08 02:46:25;;;;;;;5.80;2.57;;;;;;;12.92;61.40;96764.69;5012334;28;20187;-81
2022/07/08 02:48:50;;;;;;;9.63;3.23;;;;;;;12.60;62.60;96762.22;4996108;28;20638;-81
2022/07/08 02:51:15;;;;;;;6.03;2.87;;;;;;;12.74;62.31;96764.50;5012116;28;20221;-80
2022/07/08 02:53:41;;;;;;;7.93;2.90;;;;;;;12.71;62.95;96769.94;4995441;28;20183;-80
2022/07/08 02:56:06;;;;;;;12.60;2.63;;;;;;;12.83;62.60;96772.47;4995179;28;20202;-81
2022/07/08 02:58:31;;;;;;;6.50;2.70;;;;;;;12.81;63.22;96770.00;5011713;28;20852;-80
2022/07/08 03:00:57;;;;;;;5.07;2.40;;;;;;;12.72;63.29;96776.84;4995292;28;20709;-80
2022/07/08 03:03:22;;;;;;;6.13;2.47;;;;;;;12.56;63.85;96766.06;5011776;28;20273;-83
2022/07/08 03:05:47;;;;;;;7.10;3.00;;;;;;;12.71;63.28;96776.94;5011006;28;20194;-80
2022/07/08 03:08:13;;;;;;;7.43;2.70;;;;;;;12.74;63.12;96768.88;4995367;28;20256;-80
2022/07/08 03:10:38;;;;;;;10.07;2.97;;;;;;;12.67;63.47;96771.19;4995172;28;20198;-80
2022/07/08 03:13:03;;;;;;;6.37;2.70;;;;;;;12.65;63.70;96767.06;5012249;28;20245;-81
2022/07/08 03:15:29;;;;;;;9.80;2.40;;;;;;;12.58;63.87;96771.13;5011230;28;20206;-81
2022/07/08 03:17:54;;;;;;;7.03;2.30;;;;;;;12.53;64.22;96776.72;4995644;28;20211;-79
2022/07/08 03:20:19;;;;;;;7.93;2.57;;;;;;;12.48;63.98;96781.50;4995140;28;20270;-80
2022/07/08 03:22:45;;;;;;;4.50;2.13;;;;;;;12.37;64.43;96774.59;5011938;28;20186;-80
2022/07/08 03:25:10;;;;;;;6.97;2.97;;;;;;;12.38;64.64;96781.47;4994638;28;20186;-82
2022/07/08 03:27:35;;;;;;;9.27;2.50;;;;;;;12.26;65.27;96781.63;4995450;28;20179;-82
2022/07/08 03:30:01;;;;;;;6.27;2.63;;;;;;;12.19;65.63;96779.56;5011442;28;20705;-81
2022/07/08 03:32:26;;;;;;;8.50;2.50;;;;;;;12.15;65.72;96787.75;5013300;28;20183;-81
2022/07/08 03:34:52;;;;;;;7.43;2.23;;;;;;;12.15;65.65;96782.53;5012278;28;20229;-81
2022/07/08 03:37:17;;;;;;;11.43;2.60;;;;;;;12.05;66.57;96785.09;4999359;28;20202;-81
2022/07/08 03:39:42;;;;;;;6.87;2.40;;;;;;;12.13;66.23;96792.25;4999722;28;20777;-80
2022/07/08 03:42:08;;;;;;;7.47;2.40;;;;;;;12.09;66.50;96785.63;5017973;28;20698;-81
2022/07/08 03:44:33;;;;;;;7.40;2.50;;;;;;;12.10;66.52;96792.50;5036696;28;20162;-80
2022/07/08 03:46:59;;;;;;;5.27;2.40;;;;;;;12.07;66.83;96790.97;5039030;28;20179;-79
2022/07/08 03:49:24;;;;;;;8.13;2.77;;;;;;;11.96;67.27;96791.03;5039656;28;20159;-79
2022/07/08 03:51:49;;;;;;;6.20;2.60;;;;;;;11.99;67.19;96802.97;5023237;28;20195;-79
2022/07/08 03:54:14;;;;;;;6.90;2.37;;;;;;;12.04;67.25;96801.66;5022785;28;20175;-80
2022/07/08 03:56:40;;;;;;;5.80;2.90;;;;;;;12.03;67.53;96810.44;5018635;28;20218;-81
2022/07/08 03:59:05;;;;;;;6.50;2.50;;;;;;;12.00;67.41;96802.84;5016382;28;20710;-79
2022/07/08 04:01:31;;;;;;;7.03;2.80;;;;;;;11.99;67.24;96806.41;4999655;28;20211;-81
2022/07/08 04:03:56;;;;;;;8.77;3.03;;;;;;;12.05;67.17;96802.47;5016955;28;20233;-81
2022/07/08 04:06:21;;;;;;;4.73;2.10;;;;;;;12.13;66.93;96807.88;4998714;28;20302;-82
2022/07/08 04:08:47;;;;;;;8.10;2.30;;;;;;;12.09;67.08;96802.09;4998775;28;20187;-82
2022/07/08 04:11:12;;;;;;;8.57;2.50;;;;;;;12.18;66.63;96806.53;4999409;28;20199;-81
2022/07/08 04:13:40;;;;;;;7.97;3.03;;;;;;;12.41;65.98;96807.25;5015988;28;20175;-80
2022/07/08 04:16:11;;;;;;;9.83;2.90;;;;;;;13.03;64.31;96800.25;5015375;28;20187;-82
2022/07/08 04:18:39;;;;;;;9.57;2.80;;;;;;;14.47;58.72;96805.78;5015722;28;20261;-82
2022/07/08 04:21:05;;;;;;;7.23;2.20;;;;;;;15.77;53.33;96802.97;5000254;28;20290;-81
2022/07/08 04:23:31;;;;;;;9.67;3.60;;;;;;;16.89;50.42;96807.63;5000573;28;20214;-82
2022/07/08 04:25:56;;;;;;;4.82;1.60;;;;;;;18.29;46.44;96813.91;4999950;28;20558;-81
2022/07/08 04:28:21;;;;;;;8.95;2.28;;;;;;;19.29;43.45;96813.56;5014752;28;20568;-80
2022/07/08 04:30:46;;;;;;;5.38;2.00;;;;;;;18.99;43.90;96815.13;5017339;28;20289;-81
2022/07/08 04:33:12;;;;;;;6.38;1.80;;;;;;;20.28;40.01;96815.47;5015683;28;20190;-82
2022/07/08 04:35:37;;;;;;;9.88;2.10;;;;;;;20.05;40.25;96812.81;5014480;28;20202;-81
2022/07/08 04:38:03;;;;;;;7.30;1.80;;;;;;;20.55;39.73;96816.75;5015589;28;20203;-81
2022/07/08 04:40:28;;;;;;;8.35;2.10;;;;;;;21.11;39.10;96819.78;5014533;28;20675;-81
2022/07/08 04:42:55;;;;;;;3.70;1.80;;;;;;;21.48;38.22;96826.84;5000869;28;20294;-83
2022/07/08 04:45:21;;;;;;;6.97;2.17;;;;;;;21.73;37.13;96825.50;5015465;28;20237;-80
2022/07/08 04:47:47;;;;;;;6.85;2.28;;;;;;;22.59;35.60;96822.88;4998409;28;20235;-81
2022/07/08 04:50:12;;;;;;;7.40;2.10;;;;;;;23.73;33.13;96831.34;4997493;28;20250;-81
2022/07/08 04:52:38;;;;;;;6.00;2.13;;;;;;;24.06;32.94;96833.28;5013250;28;20639;-81
2022/07/08 04:55:03;;;;;;;7.88;2.28;;;;;;;23.89;32.40;96828.31;5011466;28;20182;-79
2022/07/08 04:57:32;;;;;;;6.68;2.55;;;;;;;24.08;32.20;96833.88;5008676;28;20329;-79
2022/07/08 04:59:58;;;;;;;4.78;1.92;;;;;;;23.95;32.18;96829.38;5012913;28;20738;-82
2022/07/08 05:02:23;;;;;;;6.78;2.33;;;;;;;24.65;32.03;96837.84;5012936;28;20199;-80
2022/07/08 05:04:49;;;;;;;7.13;2.28;;;;;;;25.30;30.71;96839.63;5012258;28;20321;-79
2022/07/08 05:07:14;;;;;;;8.13;1.90;;;;;;;25.74;30.42;96840.72;4996457;28;20183;-80
2022/07/08 05:09:40;;;;;;;7.72;1.98;;;;;;;26.29;28.97;96833.03;5008628;28;20707;-78
2022/07/08 05:12:06;;;;;;;5.32;1.75;;;;;;;27.05;28.21;96830.22;4991863;28;20498;-79
2022/07/08 05:14:31;;;;;;;5.40;2.10;;;;;;;25.86;29.54;96836.38;5014301;28;20218;-81
2022/07/08 05:16:57;;;;;;;6.85;2.00;;;;;;;26.13;29.27;96834.38;4991924;28;20207;-78
2022/07/08 05:19:22;;;;;;;7.15;2.25;;;;;;;25.19;29.63;96836.81;5011502;28;20198;-78
2022/07/08 05:21:47;;;;;;;7.53;1.63;;;;;;;25.06;30.14;96840.28;5011796;28;20573;-78
2022/07/08 05:24:12;;;;;;;9.10;2.25;;;;;;;24.89;30.52;96836.41;5012037;28;20221;-78
2022/07/08 05:26:38;;;;;;;6.50;1.70;;;;;;;25.41;28.59;96841.63;4993368;28;20221;-78
2022/07/08 05:29:03;;;;;;;7.85;2.22;;;;;;;25.80;28.94;96836.41;5028174;28;20179;-79
2022/07/08 05:31:29;;;;;;;6.20;1.63;;;;;;;25.92;28.56;96843.50;4995053;28;20203;-78
2022/07/08 05:33:54;;;;;;;5.10;1.67;;;;;;;25.42;29.41;96840.59;5010891;28;20179;-79
2022/07/08 05:38:37;;;;;;;6.45;1.83;;;;;;;25.05;28.54;96841.31;5130593;27;20998;-79
2022/07/08 05:41:03;;;;;;;6.90;1.50;;;;;;;23.47;31.88;96842.63;5112070;28;20211;-79
2022/07/08 05:43:28;;;;;;;4.40;1.48;;;;;;;26.13;28.08;96844.19;5095276;28;20248;-79
2022/07/08 05:45:53;;;;;;;6.97;1.70;;;;;;;26.42;27.33;96843.66;5112213;28;20182;-79
2022/07/08 05:48:21;;;;;;;4.60;1.70;;;;;;;25.53;28.44;96862.25;5112233;28;20262;-80
2022/07/08 05:50:46;;;;;;;4.93;1.58;;;;;;;25.70;28.51;96850.97;5091871;28;20198;-80
2022/07/08 05:53:15;;;;;;;5.82;1.98;;;;;;;25.21;28.63;96846.19;5110895;28;20172;-79
2022/07/08 05:55:40;;;;;;;5.97;1.90;;;;;;;26.17;27.39;96854.22;5129812;28;20197;-79
2022/07/08 05:58:05;;;;;;;4.85;1.30;;;;;;;25.64;28.64;96854.44;5111223;28;20202;-79
2022/07/08 06:00:30;;;;;;;4.82;1.80;;;;;;;24.73;29.78;96856.22;5131237;28;20203;-80
2022/07/08 06:02:56;;;;;;;4.80;1.67;;;;;;;25.92;28.49;96864.78;5092021;28;20564;-79
2022/07/08 06:05:21;;;;;;;6.70;1.42;;;;;;;26.50;26.90;96862.03;5112467;28;20179;-80
2022/07/08 06:07:46;;;;;;;5.32;1.55;;;;;;;27.19;25.51;96852.22;5092194;28;20176;-80
2022/07/08 06:10:12;;;;;;;4.80;1.73;;;;;;;24.82;28.85;96863.78;5089111;28;20197;-80
2022/07/08 06:12:37;;;;;;;5.85;1.70;;;;;;;23.70;30.64;96858.25;5113093;28;20179;-80
2022/07/08 06:15:02;;;;;;;8.65;2.20;;;;;;;23.11;32.83;96869.31;5095436;28;20171;-79
2022/07/08 06:17:28;;;;;;;5.03;1.58;;;;;;;24.66;30.07;96864.22;5092171;28;20234;-80
2022/07/08 06:19:53;;;;;;;4.25;1.77;;;;;;;25.94;27.72;96872.56;5093971;28;20180;-80
2022/07/08 06:22:18;;;;;;;5.43;1.60;;;;;;;25.11;28.94;96864.41;5112354;28;20614;-79
2022/07/08 06:24:44;;;;;;;4.60;1.85;;;;;;;25.00;28.73;96873.81;5091593;28;20177;-79
2022/07/08 06:27:09;;;;;;;6.57;1.52;;;;;;;24.32;29.83;96873.16;5112554;28;20175;-78
2022/07/08 06:29:34;;;;;;;7.15;1.67;;;;;;;22.59;32.62;96867.88;5111626;28;20179;-79
2022/07/08 06:32:00;;;;;;;4.43;1.63;;;;;;;23.61;31.38;96870.88;5111073;28;20218;-78
2022/07/08 06:34:25;;;;;;;3.58;1.50;;;;;;;23.82;30.43;96872.56;5110393;28;20175;-77
2022/07/08 06:36:50;;;;;;;6.10;1.90;;;;;;;26.11;27.29;96884.34;5110915;28;20287;-78
2022/07/08 06:39:16;;;;;;;5.43;1.63;;;;;;;27.12;26.40;96886.13;5094443;28;20183;-78
2022/07/08 06:41:41;;;;;;;5.80;1.60;;;;;;;25.68;26.95;96882.25;5111149;28;20203;-79
2022/07/08 06:44:06;;;;;;;4.18;1.35;;;;;;;25.40;28.22;96885.22;5110796;28;20179;-78
2022/07/08 06:46:32;;;;;;;5.10;2.08;;;;;;;24.20;29.93;96883.50;5111057;28;20193;-77
2022/07/08 06:48:57;;;;;;;4.05;1.35;;;;;;;26.47;26.08;96894.41;5085888;28;20203;-77
2022/07/08 06:51:23;;;;;;;5.75;1.80;;;;;;;25.59;27.20;96878.19;5080151;28;20199;-78
2022/07/08 06:56:32;;;;;;;3.90;1.42;;;;;;;25.15;29.01;96881.56;5099943;28;20227;-79
2022/07/08 06:58:57;;;;;;;5.93;1.58;;;;;;;23.04;31.66;96879.88;5097213;28;20589;-78
2022/07/08 07:01:22;;;;;;;5.82;1.83;;;;;;;22.18;33.82;96889.69;5076627;28;20228;-78
2022/07/08 07:03:47;;;;;;;5.50;1.95;;;;;;;23.22;32.02;96886.50;5076522;28;20191;-79
2022/07/08 07:06:13;;;;;;;3.00;1.52;;;;;;;24.12;30.11;96888.16;5080007;28;20843;-78
2022/07/08 07:08:38;;;;;;;5.50;1.83;;;;;;;24.76;28.98;96885.88;5097343;28;20183;-79
2022/07/08 07:11:04;;;;;;;6.28;1.70;;;;;;;24.49;28.54;96879.72;5096983;28;20188;-79
2022/07/08 07:13:29;;;;;;;4.13;1.50;;;;;;;25.09;29.29;96901.84;5096912;28;20274;-79
2022/07/08 07:15:54;;;;;;;3.75;1.77;;;;;;;23.88;29.46;96898.31;5089639;28;20172;-78
2022/07/08 07:18:20;;;;;;;4.70;1.48;;;;;;;23.41;30.16;96891.97;5076740;28;20199;-79
2022/07/08 07:20:45;;;;;;;5.50;1.90;;;;;;;22.21;32.28;96904.38;5090215;28;20260;-78
2022/07/08 07:23:10;;;;;;;3.90;1.63;;;;;;;22.48;32.10;96898.34;5079418;28;20187;-79
2022/07/08 07:25:36;;;;;;;5.45;1.58;;;;;;;21.77;33.76;96895.50;5096104;28;20191;-79
2022/07/08 07:28:01;;;;;;;5.07;1.90;;;;;;;23.58;30.96;96904.88;5114966;28;20164;-79
2022/07/08 07:30:26;;;;;;;6.50;1.63;;;;;;;21.72;33.06;96912.91;5080104;28;20611;-78
2022/07/08 07:33:09;;;;;;;7.65;1.80;;;;;;;22.10;34.40;96900.41;5096691;28;20184;-81
2022/07/08 07:35:34;;;;;;;5.20;1.73;;;;;;;21.11;36.04;96899.84;5080095;28;20179;-80
2022/07/08 07:38:00;;;;;;;8.60;1.75;;;;;;;20.29;36.75;96912.06;5096994;28;20204;-79
2022/07/08 07:40:25;;;;;;;8.15;1.75;;;;;;;19.70;37.03;96912.56;5079773;28;20200;-80
2022/07/08 07:42:50;;;;;;;4.68;1.40;;;;;;;18.86;39.94;96916.50;5096311;28;20187;-80
2022/07/08 07:45:16;;;;;;;4.28;1.50;;;;;;;18.87;40.12;96909.44;5075332;28;20185;-80
2022/07/08 07:47:41;;;;;;;5.82;1.55;;;;;;;19.29;38.83;96906.56;5095795;28;20240;-81
2022/07/08 07:50:07;;;;;;;4.60;1.10;;;;;;;19.50;38.40;96916.53;5096433;28;20176;-81
2022/07/08 07:52:32;;;;;;;7.47;1.63;;;;;;;19.75;37.64;96904.94;5077365;28;20180;-83
2022/07/08 07:54:57;;;;;;;3.90;1.65;;;;;;;19.57;38.93;96906.19;5075382;28;20638;-86
2022/07/08 07:57:22;;;;;;;3.72;1.52;;;;;;;19.05;38.97;96902.16;5060974;28;20667;-81
2022/07/08 07:59:48;;;;;;;3.33;1.25;;;;;;;19.87;37.95;96904.53;5076304;28;20180;-80
2022/07/08 08:02:13;;;;;;;8.40;1.88;;;;;;;19.98;37.26;96909.47;5081098;28;20207;-81
2022/07/08 08:04:38;;;;;;;4.07;1.52;;;;;;;20.47;37.26;96902.06;5097543;28;20605;-81
2022/07/08 08:07:04;;;;;;;3.88;1.55;;;;;;;20.60;37.96;96906.78;5097248;28;20192;-81
2022/07/08 08:09:29;;;;;;;4.50;1.60;;;;;;;20.65;36.56;96907.03;5116807;28;20172;-81
2022/07/08 08:11:55;;;;;;;5.50;1.60;;;;;;;19.75;37.18;96910.22;5096599;28;20204;-82
2022/07/08 08:14:20;;;;;;;6.70;1.58;;;;;;;19.84;38.76;96911.00;5078626;28;20183;-79
2022/07/08 08:16:46;;;;;;;7.53;2.10;;;;;;;19.66;38.89;96905.97;5095904;28;20209;-81
2022/07/08 08:19:11;;;;;;;5.30;1.55;;;;;;;19.64;39.43;96893.97;5095951;28;20184;-80
2022/07/08 08:21:36;;;;;;;7.68;1.60;;;;;;;19.09;39.52;96903.50;5075472;28;20215;-81
2022/07/08 08:24:03;;;;;;;5.80;1.70;;;;;;;20.31;38.53;96915.34;5075633;28;20176;-81
2022/07/08 08:26:28;;;;;;;6.78;1.75;;;;;;;19.83;38.55;96905.91;5080165;28;20187;-80
2022/07/08 08:28:53;;;;;;;4.30;1.73;;;;;;;19.70;37.68;96911.72;5096473;28;20494;-80
2022/07/08 08:31:19;;;;;;;3.95;1.67;;;;;;;19.26;38.48;96909.53;5075747;28;20691;-81
2022/07/08 08:33:44;;;;;;;4.45;1.80;;;;;;;18.99;38.81;96896.75;5091508;28;20225;-81
2022/07/08 08:36:09;;;;;;;5.75;1.90;;;;;;;19.03;39.23;96900.69;5078903;28;20183;-81
2022/07/08 08:38:35;;;;;;;6.03;1.65;;;;;;;17.46;42.75;96907.63;5095588;28;20203;-81
2022/07/08 08:41:01;;;;;;;4.70;1.77;;;;;;;18.09;41.96;96909.84;5095796;28;20253;-80
2022/07/08 08:43:27;;;;;;;2.88;1.30;;;;;;;18.32;40.59;96895.09;5095652;28;20183;-81
2022/07/08 08:45:52;;;;;;;4.90;1.73;;;;;;;18.43;40.09;96901.03;5094905;28;20168;-80
2022/07/08 08:48:21;;;;;;;4.30;1.50;;;;;;;19.04;39.14;96894.44;5074602;28;20168;-82
2022/07/08 08:50:53;;;;;;;5.90;1.50;;;;;;;19.03;38.67;96898.06;5100520;28;20206;-82
2022/07/08 08:53:26;;;;;;;4.82;1.50;;;;;;;19.76;38.82;96892.59;5087984;28;20232;-80
2022/07/08 08:55:53;;;;;;;9.40;2.35;;;;;;;19.51;39.41;96897.91;5112963;28;20184;-81
2022/07/08 08:58:19;;;;;;;4.47;1.42;;;;;;;19.75;39.39;96894.41;5076223;27;20219;-80
2022/07/08 09:00:44;;;;;;;9.75;1.80;;;;;;;19.77;39.93;96894.22;5085638;28;20192;-81
2022/07/08 09:03:09;;;;;;;4.13;1.52;;;;;;;20.02;39.79;96901.00;5084827;28;20414;-81
2022/07/08 09:05:35;;;;;;;4.95;1.40;;;;;;;20.15;36.94;96900.47;5093400;28;20559;-81
2022/07/08 09:08:00;;;;;;;5.22;1.35;;;;;;;19.42;39.36;96898.13;5091895;28;20554;-80
2022/07/08 09:10:26;;;;;;;5.25;1.63;;;;;;;19.94;40.20;96897.59;5077918;28;20203;-82
2022/07/08 09:13:10;;;;;;;5.13;1.42;;;;;;;20.41;37.80;96894.84;5077280;28;20270;-81
2022/07/08 09:15:47;;;;;;;4.63;1.92;;;;;;;20.58;38.53;96898.19;5073738;28;20169;-82
2022/07/08 09:18:14;;;;;;;5.03;1.58;;;;;;;19.90;37.51;96896.31;5062785;28;20196;-82
2022/07/08 09:20:55;;;;;;;4.13;1.45;;;;;;;19.75;37.12;96893.56;5080980;28;20694;-82
2022/07/08 09:23:23;;;;;;;3.47;1.35;;;;;;;19.60;39.00;96888.19;5078107;28;20214;-82
2022/07/08 09:25:53;;;;;;;5.88;1.65;;;;;;;19.88;38.44;96895.63;5097720;28;20191;-82
2022/07/08 09:28:32;;;;;;;5.32;2.20;;;;;;;19.59;38.44;96889.19;5110491;28;20191;-82
2022/07/08 09:30:59;;;;;;;6.25;1.38;;;;;;;20.00;37.45;96892.47;5136572;28;20210;-81
2022/07/08 09:33:25;;;;;;;3.47;1.35;;;;;;;20.33;36.92;96900.19;5101458;28;20166;-81
2022/07/08 09:35:51;;;;;;;3.05;1.50;;;;;;;20.36;38.30;96895.34;5085495;28;20192;-81
2022/07/08 09:38:18;;;;;;;4.88;1.70;;;;;;;19.71;37.83;96897.56;5078818;28;20204;-81
2022/07/08 09:40:57;;;;;;;6.30;2.00;;;;;;;19.11;39.63;96901.50;5082788;28;20259;-81
2022/07/08 09:43:23;;;;;;;3.30;1.50;;;;;;;20.14;37.57;96897.97;5094941;28;20252;-82
2022/07/08 09:45:48;;;;;;;6.95;1.70;;;;;;;20.45;37.35;96898.78;5064370;28;20192;-82
2022/07/08 09:48:13;;;;;;;3.92;1.67;;;;;;;19.97;38.38;96915.72;5096274;28;20202;-82
2022/07/08 09:50:46;;;;;;;6.07;1.60;;;;;;;18.64;39.60;96901.34;5078579;28;20226;-81
2022/07/08 09:53:20;;;;;;;5.53;2.20;;;;;;;18.40;40.82;96907.44;5078318;28;20176;-81
2022/07/08 09:55:54;;;;;;;4.68;1.70;;;;;;;18.31;40.90;96909.22;5075039;28;20173;-81
2022/07/08 09:58:21;;;;;;;6.35;1.92;;;;;;;18.55;39.88;96902.31;5077976;28;20204;-81
2022/07/08 10:00:48;;;;;;;6.50;1.58;;;;;;;18.95;39.77;96901.53;5074118;28;20192;-81
2022/07/08 10:03:13;;;;;;;6.18;1.90;;;;;;;18.43;41.46;96903.66;5075568;28;20250;-82
2022/07/08 10:05:46;;;;;;;9.68;2.20;;;;;;;18.79;39.82;96904.16;5077669;28;20639;-81
2022/07/08 10:08:12;;;;;;;4.28;1.40;;;;;;;18.44;41.03;96897.41;5078436;28;20340;-81
2022/07/08 10:10:38;;;;;;;3.97;1.63;;;;;;;18.39;40.50;96911.88;5094477;28;20235;-82
2022/07/08 10:13:04;;;;;;;6.93;1.90;;;;;;;18.26;43.08;96906.25;5094824;28;20182;-82
2022/07/08 10:15:34;;;;;;;6.55;1.42;;;;;;;18.88;41.02;96909.25;5112728;28;20176;-82
2022/07/08 10:18:07;;;;;;;2.92;1.20;;;;;;;19.33;40.46;96894.69;5094689;28;20212;-81
2022/07/08 10:20:35;;;;;;;8.43;1.60;;;;;;;19.13;40.41;96903.97;5094164;28;20717;-81
2022/07/08 10:23:15;;;;;;;5.93;1.77;;;;;;;19.08;40.57;96903.63;5094214;28;20180;-81
2022/07/08 10:25:41;;;;;;;7.50;1.88;;;;;;;19.19;40.40;96909.38;5097340;28;20176;-82
2022/07/08 10:28:08;;;;;;;7.18;1.58;;;;;;;19.28;39.52;96902.28;5098658;28;20651;-82
2022/07/08 10:30:48;;;;;;;8.98;1.70;;;;;;;19.55;39.75;96910.78;5076294;28;20200;-82
2022/07/08 10:33:18;;;;;;;4.95;2.00;;;;;;;19.79;37.96;96913.34;5080385;28;20168;-82
2022/07/08 10:36:06;;;;;;;6.88;1.67;;;;;;;19.91;37.88;96904.03;5097194;28;20704;-80
2022/07/08 10:38:39;;;;;;;5.45;1.60;;;;;;;19.73;39.23;96906.13;5097035;28;20206;-80
2022/07/08 10:41:12;;;;;;;4.47;1.45;;;;;;;20.04;36.59;96911.38;5097574;28;20208;-80
2022/07/08 10:43:39;;;;;;;7.53;1.50;;;;;;;20.37;38.52;96912.81;5081144;28;20168;-80
2022/07/08 10:46:10;;;;;;;4.63;1.33;;;;;;;20.72;37.61;96907.16;5077488;28;20563;-80
2022/07/08 10:48:41;;;;;;;2.83;1.23;;;;;;;20.25;39.10;96906.31;5095031;28;20173;-80
2022/07/08 10:51:27;;;;;;;5.20;1.60;;;;;;;19.75;38.63;96909.38;5114972;28;20270;-80
2022/07/08 10:54:02;;;;;;;3.70;1.42;;;;;;;20.24;38.83;96911.78;5097707;28;20635;-80
2022/07/08 10:56:48;;;;;;;5.00;1.80;;;;;;;20.35;38.26;96914.81;5077833;28;20173;-80
2022/07/08 10:59:21;;;;;;;11.52;1.98;;;;;;;20.08;37.32;96905.59;5079922;28;20176;-80
2022/07/08 11:02:11;;;;;;;4.90;1.65;;;;;;;20.07;38.30;96911.88;5080853;28;20195;-80
2022/07/08 11:04:37;;;;;;;4.30;1.65;;;;;;;20.16;37.73;96925.00;5093063;28;20226;-80
2022/07/08 11:07:14;;;;;;;6.50;1.77;;;;;;;20.04;37.40;96914.84;5077818;28;20223;-80
2022/07/08 11:09:40;;;;;;;5.95;1.77;;;;;;;20.12;37.74;96919.25;5095693;28;20183;-81
2022/07/08 11:12:06;;;;;;;7.07;2.20;;;;;;;19.89;38.07;96916.59;5095621;28;20563;-80
2022/07/08 11:14:33;;;;;;;5.40;1.60;;;;;;;19.41;38.80;96913.09;5080017;28;20364;-80
2022/07/08 11:16:59;;;;;;;4.13;1.58;;;;;;;19.91;36.83;96909.31;5064136;28;20207;-80
2022/07/08 11:19:31;;;;;;;3.70;1.50;;;;;;;20.23;36.77;96910.97;5097379;28;20175;-81
2022/07/08 11:22:01;;;;;;;8.02;1.65;;;;;;;20.34;38.60;96910.53;5076772;28;20235;-81
2022/07/08 11:24:26;;;;;;;7.22;1.63;;;;;;;20.45;37.37;96911.16;5062907;28;20168;-81
2022/07/08 11:26:52;;;;;;;3.35;1.30;;;;;;;20.86;36.65;96912.47;5080047;28;20190;-82
2022/07/08 11:29:17;;;;;;;4.50;1.50;;;;;;;20.16;35.53;96903.91;5080400;28;20815;-81
2022/07/08 11:31:43;;;;;;;4.13;1.23;;;;;;;19.82;37.47;96899.81;5097313;28;20196;-81
2022/07/08 11:34:18;;;;;;;5.80;1.63;;;;;;;19.59;37.06;96909.44;5096665;28;20180;-81
2022/07/08 11:36:53;;;;;;;4.40;1.30;;;;;;;20.35;36.55;96903.44;5076138;28;20824;-82